Southampton, Canada
Current Conditions -  °F | °C
As of 2:00 PM on Sunday 23 Nov 2014 (Local Time) from CYVV Reporting Station
Haze Haze  
Wind Chill: 38°   Ceiling: 1600
Heat Index: 45°   Visibility: 6mi
Dew Point: 41°   Wind: 14mph
Humidity: 87%   Direction: 180°S
Pressure: 29.8"   Gusts: NA
Location:  44.5°N, 81.37°W
Report Text: CYVV 231900Z 18012KT 6SM BR OVC016 07/05 A2980 RMK SC8 SLP096
Loading
Personal Weather Stations






























Interactive Weather Map New forecast layout! Learn more

10-Day Weather Forecast

Advertisements
Track Severe Weather on mobile